Time;durP1;ratioP1;P1;durP2;ratioP2;P2;SDS_P1;SDS_P2;PMS_P1;PMS_P2;Temp;Humidity;BMP_temperature;BMP_pressure;BME280_temperature;BME280_humidity;BME280_pressure;Samples;Min_cycle;Max_cycle;Signal;HPM_P1;HPM_P2
2024/01/03 00:00:25;;;;;;;0.20;0.20;;;8.10;99.90;;;7.50;100.00;95543.66;4949829;28;20082;-36
2024/01/03 00:02:51;;;;;;;0.63;0.20;;;8.10;99.90;;;7.48;100.00;95531.53;4952449;28;20034;-36
2024/01/03 00:05:28;;;;;;;0.40;0.20;;;8.00;99.90;;;7.59;100.00;95556.25;4952208;28;20483;-36
2024/01/03 00:07:54;;;;;;;0.95;0.30;;;8.10;99.90;;;7.61;100.00;95545.69;4954523;28;20113;-36
2024/01/03 00:10:49;;;;;;;0.20;0.13;;;8.20;99.90;;;7.76;100.00;95536.09;4949330;28;20030;-36
2024/01/03 00:13:33;;;;;;;0.45;0.20;;;8.20;99.90;;;7.60;100.00;95526.44;4977324;28;20402;-36
2024/01/03 00:15:59;;;;;;;0.93;0.35;;;8.20;99.90;;;7.50;100.00;95533.16;4963038;28;20039;-36
2024/01/03 00:18:51;;;;;;;0.82;0.20;;;8.10;99.90;;;7.43;100.00;95526.56;4958468;28;20054;-36
2024/01/03 00:21:27;;;;;;;0.85;0.32;;;8.00;99.90;;;7.36;100.00;95520.78;4954712;28;20035;-36
2024/01/03 00:23:58;;;;;;;1.83;0.38;;;7.90;99.90;;;7.33;100.00;95527.97;4940458;28;20408;-36
2024/01/03 00:26:26;;;;;;;0.40;0.30;;;7.90;99.90;;;7.29;100.00;95532.53;4960175;28;20035;-36
2024/01/03 00:28:52;;;;;;;0.70;0.20;;;7.80;99.90;;;7.23;100.00;95522.34;4962272;28;20031;-36
2024/01/03 00:31:34;;;;;;;1.23;0.38;;;7.80;99.90;;;7.15;100.00;95519.31;4963709;28;20033;-36
2024/01/03 00:34:00;;;;;;;1.27;0.47;;;7.70;99.90;;;7.17;100.00;95527.94;4959254;28;20039;-36
2024/01/03 00:36:26;;;;;;;0.82;0.40;;;7.70;99.90;;;7.25;100.00;95515.28;4957297;28;20041;-36
2024/01/03 00:38:52;;;;;;;1.30;0.32;;;7.70;99.90;;;7.37;100.00;95496.22;4944088;28;20387;-35
2024/01/03 00:41:17;;;;;;;1.08;0.50;;;7.80;99.90;;;7.60;100.00;95507.25;4956471;28;20125;-35
2024/01/03 00:43:43;;;;;;;0.90;0.43;;;7.90;99.90;;;7.51;100.00;95500.72;4945333;28;20114;-36
2024/01/03 00:46:09;;;;;;;2.72;0.68;;;8.00;99.90;;;7.47;100.00;95504.47;4959959;28;20185;-36
2024/01/03 00:48:35;;;;;;;1.70;0.60;;;7.90;99.90;;;7.48;100.00;95523.66;4955891;28;20026;-36
2024/01/03 00:51:03;;;;;;;3.85;0.60;;;8.00;99.90;;;7.53;100.00;95534.75;4951846;28;20119;-36
2024/01/03 00:53:29;;;;;;;2.20;0.65;;;8.00;99.90;;;7.59;100.00;95551.00;4954814;28;20033;-36
2024/01/03 00:55:55;;;;;;;3.78;0.85;;;8.00;99.90;;;7.72;100.00;95547.72;4957231;28;20642;-36
2024/01/03 00:58:21;;;;;;;2.10;0.63;;;8.10;99.90;;;7.81;100.00;95550.66;4959973;28;20121;-36
2024/01/03 01:00:48;;;;;;;4.03;0.40;;;8.20;99.90;;;7.79;100.00;95554.31;4956122;28;20089;-36
2024/01/03 01:03:14;;;;;;;3.63;0.52;;;8.30;99.90;;;7.84;100.00;95552.25;4960174;28;20514;-36
2024/01/03 01:05:40;;;;;;;2.67;0.52;;;8.30;99.90;;;7.75;100.00;95537.91;4960044;28;20034;-36
2024/01/03 01:08:06;;;;;;;1.50;0.40;;;8.30;99.90;;;7.73;100.00;95560.72;4953311;28;20164;-36
2024/01/03 01:10:32;;;;;;;4.18;0.50;;;8.30;99.90;;;7.63;100.00;95563.03;4954732;28;20174;-36
2024/01/03 01:12:57;;;;;;;1.42;0.45;;;8.20;99.90;;;7.56;100.00;95556.41;4954648;28;20162;-36
2024/01/03 01:15:23;;;;;;;2.88;0.90;;;8.10;99.90;;;7.52;100.00;95554.03;4952159;28;20047;-36
2024/01/03 01:17:49;;;;;;;2.17;0.55;;;8.00;99.90;;;7.33;100.00;95536.66;4953209;28;20053;-36
2024/01/03 01:20:15;;;;;;;3.13;0.60;;;8.00;99.90;;;7.41;100.00;95541.50;4950200;28;20038;-36
2024/01/03 01:22:40;;;;;;;1.15;0.40;;;8.00;99.90;;;7.42;100.00;95551.06;4949161;28;20035;-36
2024/01/03 01:25:06;;;;;;;2.45;0.50;;;7.90;99.90;;;7.45;100.00;95549.13;4950606;28;20031;-36
2024/01/03 01:27:32;;;;;;;1.42;0.40;;;7.90;99.90;;;7.36;100.00;95575.84;4949895;28;20080;-36
2024/01/03 01:29:58;;;;;;;0.75;0.40;;;7.90;99.90;;;7.35;100.00;95570.69;4950611;28;20135;-36
2024/01/03 01:32:23;;;;;;;1.85;0.50;;;7.90;99.90;;;7.28;100.00;95567.53;4957338;28;20137;-36
2024/01/03 01:34:49;;;;;;;1.25;0.50;;;7.90;99.90;;;7.15;100.00;95569.97;4948150;28;20030;-36
2024/01/03 01:37:15;;;;;;;1.02;0.40;;;7.70;99.90;;;7.11;100.00;95580.69;4959659;28;20031;-36
2024/01/03 01:39:40;;;;;;;5.72;0.65;;;7.70;99.90;;;7.11;100.00;95573.69;4954869;28;20042;-36
2024/01/03 01:42:06;;;;;;;1.15;0.50;;;7.70;99.90;;;7.13;100.00;95579.69;4952345;28;20411;-36
2024/01/03 01:44:32;;;;;;;4.07;0.52;;;7.70;99.90;;;7.05;100.00;95572.22;4954245;28;20037;-36
2024/01/03 01:46:58;;;;;;;1.42;0.55;;;7.70;99.90;;;7.17;100.00;95578.59;4956439;28;20030;-36
2024/01/03 01:49:26;;;;;;;1.23;0.50;;;7.70;99.90;;;7.32;100.00;95605.78;4959308;28;20045;-36
2024/01/03 01:51:53;;;;;;;1.65;0.63;;;7.80;99.90;;;7.42;100.00;95601.72;4951127;28;20039;-36
2024/01/03 01:54:20;;;;;;;2.83;0.40;;;7.90;99.90;;;7.42;100.00;95600.91;4958562;28;20038;-36
2024/01/03 01:56:47;;;;;;;1.15;0.52;;;8.00;99.90;;;7.47;100.00;95603.28;4957283;28;20535;-36
2024/01/03 01:59:13;;;;;;;2.60;0.70;;;8.00;99.90;;;7.42;100.00;95593.03;4961463;28;20046;-36
2024/01/03 02:01:40;;;;;;;1.95;0.50;;;8.00;99.90;;;7.36;100.00;95593.38;4956742;28;20279;-36
2024/01/03 02:04:08;;;;;;;2.47;0.40;;;7.90;99.90;;;7.26;100.00;95600.84;4959741;28;20495;-36
2024/01/03 02:06:35;;;;;;;2.28;0.60;;;7.80;99.90;;;7.10;100.00;95586.84;4954738;28;20038;-36
2024/01/03 02:09:00;;;;;;;0.30;0.20;;;7.70;99.90;;;7.16;100.00;95594.38;4953153;28;20062;-37
2024/01/03 02:11:26;;;;;;;2.33;0.40;;;7.70;99.90;;;7.15;100.00;95587.47;4958443;28;20034;-36
2024/01/03 02:13:52;;;;;;;1.08;0.70;;;7.70;99.90;;;7.00;100.00;95599.56;4958317;28;20062;-36
2024/01/03 02:16:18;;;;;;;0.68;0.35;;;7.60;99.90;;;7.07;100.00;95601.81;4958385;28;20023;-37
2024/01/03 02:18:44;;;;;;;0.60;0.30;;;7.60;99.90;;;7.14;100.00;95609.34;4960420;28;20070;-36
2024/01/03 02:21:16;;;;;;;1.90;0.60;;;7.60;99.90;;;7.06;100.00;95600.13;4961597;28;20091;-36
2024/01/03 02:23:43;;;;;;;0.63;0.38;;;7.60;99.90;;;7.11;100.00;95604.28;4992073;23;20041;-38
2024/01/03 02:26:09;;;;;;;0.93;0.22;;;7.60;99.90;;;6.98;100.00;95599.69;5000188;28;20030;-38
2024/01/03 02:28:36;;;;;;;1.35;0.20;;;7.60;99.90;;;7.04;100.00;95604.59;4996537;28;20084;-38
2024/01/03 02:31:02;;;;;;;0.17;0.10;;;7.60;99.90;;;6.99;100.00;95603.97;4989330;28;22798;-38
2024/01/03 02:33:27;;;;;;;0.30;0.20;;;7.50;99.90;;;6.95;100.00;95602.44;4980046;28;20030;-38
2024/01/03 02:35:53;;;;;;;0.90;0.30;;;7.50;99.90;;;6.81;100.00;95583.97;4978819;28;20498;-38
2024/01/03 02:38:21;;;;;;;0.20;0.20;;;7.50;99.90;;;6.83;100.00;95608.31;4980107;28;20025;-40
2024/01/03 02:40:47;;;;;;;0.50;0.30;;;7.40;99.90;;;6.96;100.00;95611.16;4973757;28;20037;-37
2024/01/03 02:43:13;;;;;;;0.47;0.10;;;7.40;99.90;;;6.88;100.00;95595.81;4985723;28;20022;-37
2024/01/03 02:45:39;;;;;;;0.10;0.10;;;7.50;99.90;;;7.05;100.00;95611.53;4977519;28;20037;-38
2024/01/03 02:48:05;;;;;;;0.20;0.20;;;7.60;99.90;;;7.19;100.00;95610.81;4976385;28;20145;-38
2024/01/03 02:50:31;;;;;;;0.55;0.30;;;7.70;99.90;;;7.30;100.00;95622.50;4979534;28;20037;-38
2024/01/03 02:52:57;;;;;;;0.52;0.20;;;7.80;99.90;;;7.31;100.00;95592.75;4982397;28;20049;-38
2024/01/03 02:55:22;;;;;;;0.30;0.20;;;7.90;99.90;;;7.24;100.00;95592.22;4977723;28;20294;-38
2024/01/03 02:57:48;;;;;;;1.17;0.20;;;7.80;99.90;;;7.08;100.00;95606.13;4978167;28;20078;-38
2024/01/03 03:00:14;;;;;;;0.30;0.20;;;7.70;99.90;;;6.97;100.00;95592.72;4979496;28;20076;-38
2024/01/03 03:02:40;;;;;;;0.52;0.10;;;7.60;99.90;;;6.81;100.00;95605.75;4977949;28;20413;-38
2024/01/03 03:05:06;;;;;;;0.75;0.25;;;7.40;99.90;;;6.76;100.00;95607.75;4979828;28;20037;-37
2024/01/03 03:07:32;;;;;;;1.30;0.25;;;7.30;99.90;;;6.76;100.00;95597.28;4978947;28;20030;-38
2024/01/03 03:09:58;;;;;;;0.85;0.30;;;7.30;99.90;;;6.65;100.00;95605.69;4978861;28;20069;-39
2024/01/03 03:12:24;;;;;;;0.10;0.10;;;7.20;99.90;;;6.50;100.00;95570.66;4981635;28;20137;-38
2024/01/03 03:14:50;;;;;;;0.28;0.20;;;7.20;99.90;;;6.49;100.00;95596.91;4976604;28;20206;-39
2024/01/03 03:17:15;;;;;;;1.75;0.17;;;7.10;99.90;;;6.41;100.00;95585.97;4978534;28;20121;-38
2024/01/03 03:19:42;;;;;;;0.20;0.20;;;7.00;99.90;;;6.27;100.00;95576.19;4980218;28;20839;-38
2024/01/03 03:22:07;;;;;;;0.17;0.13;;;6.90;99.90;;;6.20;100.00;95570.38;4980158;28;20038;-38
2024/01/03 03:24:33;;;;;;;0.52;0.20;;;6.90;99.90;;;6.18;100.00;95584.47;4981624;28;20354;-37
2024/01/03 03:26:59;;;;;;;0.25;0.20;;;6.80;99.90;;;6.10;100.00;95590.06;4980254;28;20041;-38
2024/01/03 03:29:25;;;;;;;0.73;0.20;;;6.70;99.90;;;5.98;100.00;95581.06;4979159;28;20039;-38
2024/01/03 03:31:50;;;;;;;0.47;0.25;;;6.70;99.90;;;6.01;100.00;95596.63;4979162;28;20144;-37
2024/01/03 03:35:06;;;;;;;0.47;0.30;;;6.60;99.90;;;5.99;100.00;95590.56;4974949;28;20488;-38
2024/01/03 03:37:32;;;;;;;1.10;0.38;;;6.60;99.90;;;5.96;100.00;95589.88;4944735;28;20326;-38
2024/01/03 03:39:57;;;;;;;0.80;0.40;;;6.50;99.90;;;5.99;100.00;95595.81;4972949;28;20089;-37
2024/01/03 03:42:24;;;;;;;2.47;0.40;;;6.60;99.90;;;6.02;100.00;95592.22;4977785;28;20046;-38
2024/01/03 03:44:49;;;;;;;2.50;0.35;;;6.60;99.90;;;5.99;100.00;95600.22;4975535;28;20042;-38
2024/01/03 03:47:15;;;;;;;0.95;0.20;;;6.60;99.90;;;6.00;100.00;95592.28;4979255;28;20031;-38
2024/01/03 03:49:41;;;;;;;0.57;0.30;;;6.60;99.90;;;6.04;100.00;95583.38;4978104;28;20034;-38
2024/01/03 03:52:06;;;;;;;2.08;0.20;;;6.60;99.90;;;5.97;100.00;95587.19;4977931;28;20056;-38
2024/01/03 03:54:32;;;;;;;0.68;0.30;;;6.60;99.90;;;5.95;100.00;95586.38;4982577;28;20126;-38
2024/01/03 03:56:58;;;;;;;0.55;0.20;;;6.60;99.90;;;5.98;100.00;95585.44;4973325;28;20113;-38
2024/01/03 03:59:23;;;;;;;1.27;0.55;;;6.60;99.90;;;5.92;100.00;95587.41;4975735;28;20041;-38
2024/01/03 04:01:50;;;;;;;0.20;0.20;;;6.60;99.90;;;5.97;100.00;95573.28;4972126;28;20037;-38
2024/01/03 04:04:17;;;;;;;1.83;0.40;;;6.60;99.90;;;6.08;100.00;95582.31;4977388;28;20022;-38
2024/01/03 04:06:43;;;;;;;4.38;0.68;;;6.60;99.90;;;6.04;100.00;95588.59;4973153;28;20249;-38
2024/01/03 04:09:10;;;;;;;1.52;0.52;;;6.60;99.90;;;6.07;100.00;95598.09;4979006;28;20499;-38
2024/01/03 04:11:40;;;;;;;2.90;0.60;;;6.60;99.90;;;6.11;100.00;95579.53;4971122;28;20573;-39
2024/01/03 04:14:07;;;;;;;2.78;0.50;;;6.60;99.90;;;6.24;100.00;95589.41;4965265;28;20037;-38
2024/01/03 04:16:33;;;;;;;1.85;0.50;;;6.70;99.90;;;6.23;100.00;95588.56;4980791;28;20390;-38
2024/01/03 04:18:58;;;;;;;2.45;0.40;;;6.70;99.90;;;6.30;100.00;95595.19;4975416;28;20437;-37
2024/01/03 04:21:24;;;;;;;1.95;0.50;;;6.80;99.90;;;6.23;100.00;95608.66;4976850;28;20495;-39
2024/01/03 04:23:50;;;;;;;3.65;0.30;;;6.80;99.90;;;6.21;100.00;95607.88;4978788;28;20483;-38
2024/01/03 04:26:16;;;;;;;0.57;0.40;;;6.80;99.90;;;6.16;100.00;95608.09;4980268;28;20040;-39
2024/01/03 04:28:42;;;;;;;1.67;0.45;;;6.80;99.90;;;6.17;100.00;95604.56;4984983;28;20100;-38
2024/01/03 04:31:07;;;;;;;0.85;0.43;;;6.80;99.90;;;6.22;100.00;95599.09;4979172;28;20034;-38
2024/01/03 04:33:33;;;;;;;3.00;0.68;;;6.80;99.90;;;6.22;100.00;95597.31;4982526;28;20541;-39
2024/01/03 04:35:59;;;;;;;4.35;0.80;;;6.80;99.90;;;6.28;100.00;95599.66;4979317;28;20053;-39
2024/01/03 04:38:24;;;;;;;1.92;0.45;;;6.90;99.90;;;6.36;100.00;95603.69;4973525;28;20042;-36
2024/01/03 04:40:50;;;;;;;1.02;0.52;;;6.90;99.90;;;6.32;100.00;95608.22;4965246;28;20046;-38
2024/01/03 04:43:16;;;;;;;2.17;0.45;;;6.90;99.90;;;6.40;100.00;95613.06;4974133;28;20723;-39
2024/01/03 04:45:42;;;;;;;2.47;0.38;;;6.90;99.90;;;6.48;100.00;95601.31;4972800;28;20049;-37
2024/01/03 04:48:08;;;;;;;4.03;0.80;;;7.00;99.90;;;6.54;100.00;95612.41;4974953;28;20041;-37
2024/01/03 04:50:33;;;;;;;4.20;0.80;;;7.10;99.90;;;6.60;100.00;95605.06;4973022;28;20038;-38
2024/01/03 04:52:59;;;;;;;2.15;0.50;;;7.10;99.90;;;6.78;100.00;95612.94;4975707;28;20042;-37
2024/01/03 04:55:26;;;;;;;3.13;0.60;;;7.20;99.90;;;6.67;100.00;95600.38;4974864;28;20034;-37
2024/01/03 04:57:52;;;;;;;4.30;0.95;;;7.20;99.90;;;6.71;100.00;95612.38;4978334;28;20038;-37
2024/01/03 05:00:18;;;;;;;0.85;0.47;;;7.20;99.90;;;6.55;100.00;95609.72;4974006;28;20038;-38
2024/01/03 05:02:44;;;;;;;1.52;0.63;;;7.20;99.90;;;6.68;100.00;95610.78;4975064;28;20045;-39
2024/01/03 05:05:09;;;;;;;4.38;0.57;;;7.10;99.90;;;6.61;100.00;95609.38;4973954;28;20562;-39
2024/01/03 05:07:35;;;;;;;2.22;0.65;;;7.20;99.90;;;6.57;100.00;95615.72;4977175;28;20117;-37
2024/01/03 05:10:01;;;;;;;5.57;0.70;;;7.10;99.90;;;6.59;100.00;95624.34;4972319;28;20408;-37
2024/01/03 05:12:27;;;;;;;3.65;0.77;;;7.10;99.90;;;6.74;100.00;95624.50;4975686;28;20149;-37
2024/01/03 05:14:53;;;;;;;3.92;0.73;;;7.20;99.90;;;6.82;100.00;95623.19;4977619;28;20120;-37
2024/01/03 05:17:19;;;;;;;4.35;0.80;;;7.30;99.90;;;6.72;100.00;95627.19;4978659;28;20038;-37
2024/01/03 05:19:45;;;;;;;4.15;1.00;;;7.30;99.90;;;6.74;100.00;95629.75;4973841;28;20577;-37
2024/01/03 05:22:10;;;;;;;1.58;0.68;;;7.30;99.90;;;6.94;100.00;95631.34;4969733;28;20117;-37
2024/01/03 05:24:36;;;;;;;4.38;0.70;;;7.30;99.90;;;6.99;100.00;95630.19;4980856;28;20376;-37
2024/01/03 05:27:02;;;;;;;4.55;0.75;;;7.40;99.90;;;7.03;100.00;95642.22;4972496;28;20379;-37
2024/01/03 05:29:28;;;;;;;4.20;0.70;;;7.50;99.90;;;7.15;100.00;95645.13;4976737;28;20168;-37
2024/01/03 05:31:53;;;;;;;4.22;0.75;;;7.60;99.90;;;7.02;100.00;95616.09;4974250;28;20080;-37
2024/01/03 05:34:19;;;;;;;4.78;0.82;;;7.60;99.90;;;7.01;100.00;95628.31;4976208;28;20110;-37
2024/01/03 05:36:45;;;;;;;5.32;1.27;;;7.60;99.90;;;7.14;100.00;95635.56;4971073;28;20037;-37
2024/01/03 05:39:13;;;;;;;1.55;0.57;;;7.60;99.90;;;7.15;100.00;95632.88;4974523;28;20045;-37
2024/01/03 05:41:39;;;;;;;4.55;0.65;;;7.60;99.90;;;7.12;100.00;95619.91;4975025;28;20509;-37
2024/01/03 05:44:05;;;;;;;5.00;0.80;;;7.60;99.90;;;7.08;100.00;95628.88;4974013;28;20031;-37
2024/01/03 05:46:31;;;;;;;3.28;0.80;;;7.60;99.90;;;7.02;100.00;95618.72;4977693;28;20127;-37
2024/01/03 05:48:57;;;;;;;3.20;0.82;;;7.60;99.90;;;7.01;100.00;95628.31;4979095;28;20037;-37
2024/01/03 05:51:22;;;;;;;1.80;0.68;;;7.60;99.90;;;7.16;100.00;95631.09;4977477;28;20031;-37
2024/01/03 05:53:48;;;;;;;2.22;0.52;;;7.60;99.90;;;7.10;100.00;95640.13;4982822;28;20445;-37
2024/01/03 05:56:15;;;;;;;5.38;0.70;;;7.60;99.90;;;7.16;100.00;95641.56;4979222;28;20026;-38
2024/01/03 05:58:44;;;;;;;3.05;0.70;;;7.70;99.90;;;7.11;100.00;95630.50;4981373;28;20034;-37
2024/01/03 06:01:10;;;;;;;3.85;0.90;;;7.60;99.90;;;7.22;100.00;95628.16;4980186;28;20034;-37
2024/01/03 06:03:36;;;;;;;3.72;0.85;;;7.70;99.90;;;7.15;100.00;95632.03;4983991;28;20053;-37
2024/01/03 06:06:02;;;;;;;2.63;0.68;;;7.70;99.90;;;7.22;100.00;95630.78;4962936;28;20038;-37
2024/01/03 06:08:28;;;;;;;3.40;0.80;;;7.70;99.90;;;7.25;100.00;95652.44;4984243;28;20045;-37
2024/01/03 06:10:55;;;;;;;3.45;0.70;;;7.70;99.90;;;7.25;100.00;95630.63;4984479;28;20045;-37
2024/01/03 06:13:22;;;;;;;5.43;0.75;;;7.70;99.90;;;7.22;100.00;95649.16;4977932;28;20579;-37
2024/01/03 06:15:48;;;;;;;2.65;0.65;;;7.70;99.90;;;7.25;100.00;95657.69;4981210;28;20055;-37
2024/01/03 06:18:14;;;;;;;4.30;0.68;;;7.70;99.90;;;7.28;100.00;95661.91;4977037;28;20089;-37
2024/01/03 06:20:40;;;;;;;3.78;0.65;;;7.80;99.90;;;7.41;100.00;95663.00;4982095;28;20089;-38
2024/01/03 06:23:06;;;;;;;3.80;0.80;;;7.90;99.90;;;7.43;100.00;95642.78;4972385;28;20739;-38
2024/01/03 06:25:32;;;;;;;3.97;0.80;;;8.00;99.90;;;7.38;100.00;95650.03;4980808;28;20038;-38
2024/01/03 06:27:58;;;;;;;2.78;0.60;;;7.90;99.90;;;7.31;100.00;95647.81;4981070;28;20038;-37
2024/01/03 06:30:24;;;;;;;1.95;0.40;;;7.80;99.90;;;7.33;100.00;95638.09;4974795;28;20081;-38
2024/01/03 06:32:49;;;;;;;1.88;0.40;;;7.90;99.90;;;7.29;100.00;95655.75;4981108;28;20034;-38
2024/01/03 06:35:15;;;;;;;3.72;0.57;;;7.80;99.90;;;7.10;100.00;95647.97;4973589;28;20031;-37
2024/01/03 06:37:41;;;;;;;3.10;0.57;;;7.80;99.90;;;7.09;100.00;95667.28;4981362;28;20040;-39
2024/01/03 06:40:08;;;;;;;0.95;0.40;;;7.60;99.90;;;6.97;100.00;95645.16;4972479;28;22065;-38
2024/01/03 06:42:34;;;;;;;3.97;0.50;;;7.60;99.90;;;7.00;100.00;95650.25;4983341;28;20045;-37
2024/01/03 06:44:59;;;;;;;2.10;0.57;;;7.50;99.90;;;6.92;100.00;95649.78;4981531;28;20038;-37
2024/01/03 06:47:25;;;;;;;2.47;0.82;;;7.40;99.90;;;6.75;100.00;95648.00;4983411;28;20132;-38
2024/01/03 06:49:51;;;;;;;2.53;0.70;;;7.40;99.90;;;6.59;100.00;95647.06;4978399;28;20034;-37
2024/01/03 06:52:16;;;;;;;4.35;0.73;;;7.30;99.90;;;6.52;100.00;95643.06;4979145;28;20093;-37
2024/01/03 06:54:42;;;;;;;4.63;0.68;;;7.10;99.90;;;6.45;100.00;95645.13;4979203;28;20112;-38
2024/01/03 06:57:11;;;;;;;3.70;0.57;;;7.00;99.90;;;6.40;100.00;95647.09;4972830;28;20042;-38
2024/01/03 06:59:36;;;;;;;3.13;0.60;;;7.00;99.90;;;6.46;100.00;95646.78;4980534;28;20128;-38
2024/01/03 07:02:03;;;;;;;2.13;0.60;;;7.00;99.90;;;6.48;100.00;95653.69;4977195;28;20084;-38
2024/01/03 07:04:28;;;;;;;2.85;0.57;;;7.00;99.90;;;6.41;100.00;95635.72;4976756;28;20066;-38
2024/01/03 07:06:56;;;;;;;4.25;0.80;;;7.10;99.90;;;6.47;100.00;95651.97;4977235;28;20128;-38
2024/01/03 07:09:21;;;;;;;3.38;0.63;;;7.10;99.90;;;6.50;100.00;95648.38;4980702;28;20047;-38
2024/01/03 07:11:47;;;;;;;3.85;0.73;;;7.00;99.90;;;6.43;100.00;95650.44;4979101;28;20022;-38
2024/01/03 07:14:13;;;;;;;2.78;0.52;;;7.00;99.90;;;6.41;100.00;95660.13;4978655;28;20034;-38
2024/01/03 07:16:42;;;;;;;3.13;0.68;;;7.00;99.90;;;6.39;100.00;95646.28;4981471;28;20042;-38
2024/01/03 07:19:08;;;;;;;1.55;0.50;;;7.00;99.90;;;6.53;100.00;95663.06;4977133;28;20727;-37
2024/01/03 07:21:34;;;;;;;4.18;0.70;;;7.00;99.90;;;6.60;100.00;95667.91;4978369;28;20037;-37
2024/01/03 07:23:59;;;;;;;1.90;0.52;;;7.10;99.90;;;6.69;100.00;95677.97;4979209;28;20045;-38
2024/01/03 07:26:25;;;;;;;2.78;0.65;;;7.20;99.90;;;6.75;100.00;95663.72;4978318;28;20171;-38
2024/01/03 07:28:51;;;;;;;3.40;0.70;;;7.30;99.90;;;6.77;100.00;95674.97;4976846;28;20057;-38
2024/01/03 07:31:17;;;;;;;4.90;0.63;;;7.30;99.90;;;6.93;100.00;95659.34;4974485;28;20046;-38
2024/01/03 07:33:42;;;;;;;1.50;0.60;;;7.40;99.90;;;7.04;100.00;95654.38;4982436;28;20114;-38
2024/01/03 07:36:08;;;;;;;3.83;0.60;;;7.50;99.90;;;7.07;100.00;95651.63;4976932;28;21521;-38
2024/01/03 07:38:34;;;;;;;2.33;0.65;;;7.60;99.90;;;7.14;100.00;95665.28;4977861;28;20045;-37
2024/01/03 07:41:00;;;;;;;4.85;0.73;;;7.60;99.90;;;7.24;100.00;95660.38;4977295;28;20489;-38
2024/01/03 07:43:27;;;;;;;2.05;0.50;;;7.70;99.90;;;7.26;100.00;95669.03;4983976;28;20061;-38
2024/01/03 07:45:53;;;;;;;1.90;0.70;;;7.80;99.90;;;7.42;100.00;95663.84;4973788;28;20426;-37
2024/01/03 07:48:18;;;;;;;2.65;0.43;;;7.90;99.90;;;7.38;100.00;95667.56;4980034;28;20595;-38
2024/01/03 07:50:44;;;;;;;2.33;0.60;;;7.90;99.90;;;7.38;100.00;95671.00;4979622;28;20046;-38
2024/01/03 07:53:10;;;;;;;1.73;0.60;;;7.90;99.90;;;7.38;100.00;95670.19;4979820;28;20035;-38
2024/01/03 07:55:35;;;;;;;4.43;0.88;;;7.90;99.90;;;7.36;100.00;95662.38;4978236;28;20108;-38
2024/01/03 07:58:01;;;;;;;1.17;0.40;;;7.90;99.90;;;7.33;100.00;95669.56;4976420;28;20395;-38
2024/01/03 08:00:30;;;;;;;2.95;0.50;;;7.90;99.90;;;7.32;100.00;95668.72;4977909;28;20129;-37
2024/01/03 08:02:57;;;;;;;1.88;0.50;;;7.80;99.90;;;7.34;100.00;95668.63;4970714;28;20414;-37
2024/01/03 08:05:23;;;;;;;3.28;0.60;;;7.80;99.90;;;7.45;100.00;95679.41;4977453;28;21047;-37
2024/01/03 08:07:49;;;;;;;2.80;0.70;;;7.90;99.90;;;7.45;100.00;95672.41;4971342;28;20278;-37
2024/01/03 08:10:15;;;;;;;2.88;0.85;;;8.00;99.90;;;7.43;100.00;95673.41;4972778;28;20038;-37
2024/01/03 08:12:41;;;;;;;2.58;0.60;;;8.00;99.90;;;7.43;100.00;95676.88;4978126;28;20065;-38
2024/01/03 08:15:08;;;;;;;3.75;0.70;;;8.00;99.90;;;7.42;100.00;95669.91;4976631;28;20451;-37
2024/01/03 08:17:34;;;;;;;0.90;0.30;;;8.00;99.90;;;7.40;100.00;95656.03;4983448;28;20041;-38
2024/01/03 08:20:00;;;;;;;2.72;0.70;;;8.00;99.90;;;7.52;100.00;95670.31;4977373;28;20419;-38
2024/01/03 08:22:28;;;;;;;2.28;0.60;;;8.00;99.90;;;7.55;100.00;95667.50;4975706;28;20506;-37
2024/01/03 08:24:54;;;;;;;2.75;0.50;;;8.10;99.90;;;7.77;100.00;95668.97;4971598;28;20033;-37
2024/01/03 08:27:19;;;;;;;6.32;0.60;;;8.20;99.90;;;7.84;100.00;95671.22;4979610;28;20034;-37
2024/01/03 08:29:45;;;;;;;3.90;0.57;;;8.30;99.90;;;7.93;100.00;95669.88;4980246;28;20101;-37
2024/01/03 08:32:11;;;;;;;4.75;0.80;;;8.50;99.90;;;8.07;100.00;95674.34;4982002;28;20037;-36
2024/01/03 08:34:37;;;;;;;8.15;0.63;;;8.60;99.90;;;8.15;100.00;95664.28;4980905;28;20372;-38
2024/01/03 08:37:03;;;;;;;2.75;1.67;;;8.70;99.90;;;8.26;100.00;95671.59;4979912;28;20878;-40
2024/01/03 08:39:29;;;;;;;2.03;0.63;;;8.80;99.90;;;8.39;100.00;95677.00;4969351;28;20038;-37
2024/01/03 08:41:55;;;;;;;2.42;0.57;;;8.90;99.90;;;8.49;100.00;95657.19;4975065;28;20791;-37
2024/01/03 08:44:21;;;;;;;2.30;0.63;;;9.00;99.90;;;8.53;100.00;95658.72;4978146;28;20046;-37
2024/01/03 08:46:47;;;;;;;1.30;0.50;;;9.10;99.90;;;8.58;100.00;95667.19;4984917;28;20109;-38
2024/01/03 08:49:13;;;;;;;2.30;0.47;;;9.10;99.90;;;8.60;100.00;95654.81;4974051;28;20022;-39
2024/01/03 08:51:39;;;;;;;1.35;0.50;;;9.20;99.90;;;8.46;100.00;95638.13;4977642;28;20058;-38
2024/01/03 08:54:05;;;;;;;4.47;0.77;;;9.10;99.90;;;8.39;100.00;95663.88;4975405;28;20041;-37
2024/01/03 08:56:31;;;;;;;4.47;0.85;;;9.00;99.90;;;8.22;100.00;95654.31;4982251;28;20029;-37
2024/01/03 08:58:57;;;;;;;2.38;0.73;;;8.80;99.90;;;8.13;100.00;95662.66;4976967;28;20049;-38
2024/01/03 09:01:24;;;;;;;3.28;0.60;;;8.70;99.90;;;8.10;100.00;95671.56;4975630;28;20460;-39
2024/01/03 09:03:50;;;;;;;2.35;0.30;;;8.70;99.90;;;8.11;100.00;95677.66;4978106;28;20076;-37
2024/01/03 09:06:25;;;;;;;6.38;0.75;;;8.70;99.90;;;8.16;100.00;95686.13;4975341;28;20026;-36
2024/01/03 09:08:51;;;;;;;3.47;0.70;;;8.70;99.90;;;8.25;100.00;95688.25;4974715;28;20034;-37
2024/01/03 09:11:25;;;;;;;3.65;0.93;;;8.80;99.90;;;8.41;100.00;95686.47;4978824;28;20058;-37
2024/01/03 09:13:51;;;;;;;1.67;0.43;;;9.00;99.90;;;8.48;100.00;95679.13;4972068;28;20034;-37
2024/01/03 09:16:26;;;;;;;1.52;0.57;;;9.10;99.90;;;8.53;100.00;95686.78;4977572;28;20045;-37
2024/01/03 09:18:51;;;;;;;0.73;0.45;;;9.10;99.90;;;8.55;100.00;95669.97;4975740;28;20029;-36
2024/01/03 09:21:17;;;;;;;1.77;0.30;;;9.10;99.90;;;8.50;100.00;95674.63;4981196;28;20104;-37
2024/01/03 09:23:43;;;;;;;3.00;0.70;;;9.10;99.90;;;8.51;100.00;95678.97;4973432;28;20061;-37
2024/01/03 09:26:11;;;;;;;3.65;0.40;;;9.10;99.90;;;8.45;100.00;95674.03;4976462;28;20029;-37
2024/01/03 09:28:38;;;;;;;1.50;0.35;;;9.00;99.90;;;8.41;100.00;95683.84;4979075;28;20056;-37
2024/01/03 09:31:05;;;;;;;2.85;0.73;;;9.00;99.90;;;8.49;100.00;95693.09;4975007;28;20080;-38
2024/01/03 09:33:31;;;;;;;3.40;0.50;;;9.10;99.90;;;8.56;100.00;95692.69;4975205;28;20034;-38
2024/01/03 09:35:56;;;;;;;3.25;0.60;;;9.10;99.90;;;8.55;100.00;95684.91;4970730;28;20388;-39
2024/01/03 09:38:22;;;;;;;1.40;0.50;;;9.10;99.90;;;8.54;100.00;95689.31;4980221;28;20026;-38
2024/01/03 09:40:48;;;;;;;3.38;0.77;;;9.10;99.90;;;8.58;100.00;95698.72;4978562;28;20030;-38
2024/01/03 09:43:15;;;;;;;1.05;0.30;;;9.20;99.90;;;8.61;100.00;95695.06;4966231;28;20045;-39
2024/01/03 09:45:41;;;;;;;1.33;0.40;;;9.20;99.90;;;8.67;100.00;95701.75;4974129;28;20495;-38
2024/01/03 09:48:09;;;;;;;3.33;0.50;;;9.30;99.90;;;8.64;100.00;95696.69;4972289;28;20026;-38
2024/01/03 09:50:35;;;;;;;3.55;0.55;;;9.30;99.90;;;8.69;100.00;95706.00;4965054;28;20363;-36
2024/01/03 09:53:02;;;;;;;1.55;0.40;;;9.30;99.90;;;8.63;100.00;95687.09;4972011;28;20182;-36
2024/01/03 09:55:29;;;;;;;3.47;0.50;;;9.30;99.90;;;8.62;100.00;95707.28;4973026;28;20121;-38
2024/01/03 09:57:55;;;;;;;1.75;0.47;;;9.20;99.90;;;8.51;100.00;95701.78;4969023;28;20554;-38
2024/01/03 10:00:23;;;;;;;1.55;0.30;;;9.10;99.90;;;8.54;100.00;95697.19;4975310;28;20039;-37
2024/01/03 10:02:50;;;;;;;3.05;0.57;;;9.10;99.90;;;8.56;100.00;95692.69;4974728;28;20350;-38
2024/01/03 10:05:22;;;;;;;4.07;0.50;;;9.20;99.90;;;8.62;100.00;95698.56;4969425;28;20078;-37
2024/01/03 10:07:47;;;;;;;;;;;9.20;99.90;;;8.67;100.00;95693.84;4972281;28;20034;-38
2024/01/03 10:10:33;;;;;;;2.65;0.68;;;9.30;99.90;;;8.79;100.00;95687.91;4972477;28;19928;-38
2024/01/03 10:13:19;;;;;;;2.33;0.40;;;9.30;99.90;;;8.81;100.00;95714.09;4971718;28;20426;-37
2024/01/03 10:15:46;;;;;;;0.47;0.38;;;9.40;99.90;;;8.82;100.00;95700.88;4967667;28;20490;-37
2024/01/03 10:18:15;;;;;;;2.92;0.45;;;9.40;99.90;;;8.92;100.00;95702.06;4974419;28;20097;-38
2024/01/03 10:20:42;;;;;;;2.95;0.60;;;9.50;99.90;;;9.03;100.00;95700.59;4969514;28;20034;-36
2024/01/03 10:23:15;;;;;;;2.47;0.60;;;9.60;99.90;;;9.12;100.00;95710.59;4966292;28;20163;-36